Time;durP1;ratioP1;P1;durP2;ratioP2;P2;SDS_P1;SDS_P2;PMS_P1;PMS_P2;Temp;Humidity;BMP_temperature;BMP_pressure;BME280_temperature;BME280_humidity;BME280_pressure;Samples;Min_cycle;Max_cycle;Signal;HPM_P1;HPM_P2
2023/01/03 15:51:19;;;;;;;17.42;6.32;;;;;;;;;;5107180;27;86471;-67
2023/01/03 15:53:45;;;;;;;14.63;5.85;;;;;;;;;;5095130;27;86825;-67
2023/01/03 15:56:15;;;;;;;15.52;5.65;;;;;;;;;;5093864;27;87115;-67
2023/01/03 15:58:42;;;;;;;13.50;5.73;;;;;;;;;;5094344;27;87488;-67
2023/01/03 16:01:08;;;;;;;24.67;8.77;;;;;;;;;;5095162;27;87816;-67
2023/01/03 16:03:35;;;;;;;14.00;4.88;;;;;;;;;;5096232;27;87448;-67
2023/01/03 16:06:02;;;;;;;20.73;9.15;;;;;;;;;;5090942;27;87751;-67
2023/01/03 16:08:28;;;;;;;16.05;5.88;;;;;;;;;;5080895;27;87710;-67
2023/01/03 16:10:55;;;;;;;11.45;4.72;;;;;;;;;;5094801;27;88132;-67
2023/01/03 16:13:24;;;;;;;22.15;5.78;;;;;;;;;;5095902;27;86856;-67
2023/01/03 16:15:50;;;;;;;14.98;6.05;;;;;;;;;;5087218;27;87528;-67
2023/01/03 16:18:20;;;;;;;19.58;7.53;;;;;;;;;;5090324;27;87484;-67
2023/01/03 16:20:46;;;;;;;22.15;7.18;;;;;;;;;;5076514;27;87884;-67
2023/01/03 16:23:21;;;;;;;18.95;7.30;;;;;;;;;;5086696;27;88475;-67
2023/01/03 16:25:48;;;;;;;21.02;7.95;;;;;;;;;;5093415;27;87496;-67
2023/01/03 16:28:14;;;;;;;23.33;7.10;;;;;;;;;;5085072;27;87936;-67
2023/01/03 16:30:41;;;;;;;17.92;5.47;;;;;;;;;;5094041;27;86978;-67
2023/01/03 16:33:17;;;;;;;20.67;5.55;;;;;;;;;;5091559;27;87597;-67
2023/01/03 16:35:44;;;;;;;26.02;5.70;;;;;;;;;;5074590;27;87418;-67
2023/01/03 16:38:12;;;;;;;25.77;6.20;;;;;;;;;;5081135;27;86861;-67
2023/01/03 16:40:39;;;;;;;18.55;4.15;;;;;;;;;;5092902;27;88055;-68
2023/01/03 16:43:05;;;;;;;14.20;4.60;;;;;;;;;;5089228;27;87302;-67
2023/01/03 16:45:31;;;;;;;15.07;4.85;;;;;;;;;;5061633;27;87989;-68
2023/01/03 16:47:58;;;;;;;16.33;6.13;;;;;;;;;;5095133;27;86782;-67
2023/01/03 16:50:24;;;;;;;13.90;5.53;;;;;;;;;;5074622;27;87835;-67
2023/01/03 16:52:51;;;;;;;15.88;5.32;;;;;;;;;;5089300;27;87656;-67
2023/01/03 16:55:18;;;;;;;14.40;4.70;;;;;;;;;;5084150;27;87890;-67
2023/01/03 16:57:44;;;;;;;19.08;4.57;;;;;;;;;;5075273;27;87366;-67
2023/01/03 17:00:20;;;;;;;20.05;5.38;;;;;;;;;;5082839;27;88038;-67
2023/01/03 17:02:47;;;;;;;10.77;4.40;;;;;;;;;;5077740;27;88142;-67
2023/01/03 17:05:14;;;;;;;17.08;4.85;;;;;;;;;;5079756;27;87491;-67
2023/01/03 17:07:44;;;;;;;11.80;3.90;;;;;;;;;;5070461;27;88000;-67
2023/01/03 17:10:30;;;;;;;14.95;4.47;;;;;;;;;;5076861;27;87546;-68
2023/01/03 17:12:58;;;;;;;14.88;4.05;;;;;;;;;;5079215;27;87439;-67
2023/01/03 17:15:24;;;;;;;11.88;3.80;;;;;;;;;;5070320;27;88266;-68
2023/01/03 17:17:51;;;;;;;17.95;4.05;;;;;;;;;;5073036;27;89849;-68
2023/01/03 17:20:18;;;;;;;14.98;4.72;;;;;;;;;;5061061;27;87488;-67
2023/01/03 17:22:47;;;;;;;12.10;4.07;;;;;;;;;;5070058;27;87013;-68
2023/01/03 17:25:14;;;;;;;20.25;6.60;;;;;;;;;;5064647;27;88413;-68
2023/01/03 17:27:41;;;;;;;14.57;5.68;;;;;;;;;;5071123;27;88169;-68
2023/01/03 17:30:08;;;;;;;18.38;5.45;;;;;;;;;;5080168;27;87301;-68
2023/01/03 17:32:34;;;;;;;15.13;3.92;;;;;;;;;;5081118;27;87453;-68
2023/01/03 17:35:02;;;;;;;14.50;6.00;;;;;;;;;;5071085;27;88061;-68
2023/01/03 17:37:28;;;;;;;14.00;5.43;;;;;;;;;;5080220;27;90202;-68
2023/01/03 17:39:56;;;;;;;19.45;4.68;;;;;;;;;;5083566;27;88227;-68
2023/01/03 17:42:23;;;;;;;11.80;3.80;;;;;;;;;;5080500;27;87440;-68
2023/01/03 17:50:22;;;;;;;15.30;4.65;;;;;;;;;;5057858;27;87758;-68
2023/01/03 17:52:49;;;;;;;19.08;4.10;;;;;;;;;;5058483;27;88299;-68
2023/01/03 17:55:22;;;;;;;11.25;4.47;;;;;;;;;;5055743;27;88273;-67
2023/01/03 17:57:49;;;;;;;15.02;5.13;;;;;;;;;;5055312;27;87343;-68
2023/01/03 18:00:20;;;;;;;23.20;7.55;;;;;;;;;;5034972;27;89011;-68
2023/01/03 18:02:46;;;;;;;17.30;6.78;;;;;;;;;;5042504;28;87011;-68
2023/01/03 18:05:14;;;;;;;15.45;5.97;;;;;;;;;;5055578;27;87413;-67
2023/01/03 18:07:51;;;;;;;24.52;7.20;;;;;;;;;;5047039;27;88471;-67
2023/01/03 18:10:21;;;;;;;18.50;9.57;;;;;;;;;;5054992;27;87347;-68
2023/01/03 18:12:47;;;;;;;19.83;8.30;;;;;;;;;;5038731;27;87469;-68
2023/01/03 18:15:15;;;;;;;16.20;6.38;;;;;;;;;;5026220;27;86910;-68
2023/01/03 18:17:42;;;;;;;14.50;5.60;;;;;;;;;;5051599;27;88268;-67
2023/01/03 18:20:11;;;;;;;16.27;4.97;;;;;;;;;;5041785;27;87779;-68
2023/01/03 18:22:37;;;;;;;27.15;8.00;;;;;;;;;;5060037;27;87923;-68
2023/01/03 18:25:04;;;;;;;23.60;6.65;;;;;;;;;;5038294;27;87676;-68
2023/01/03 18:27:31;;;;;;;15.63;4.25;;;;;;;;;;5053072;27;88228;-68
2023/01/03 18:29:57;;;;;;;11.23;4.60;;;;;;;;;;5058487;27;88186;-67
2023/01/03 18:32:23;;;;;;;23.75;5.93;;;;;;;;;;5059359;27;87579;-68
2023/01/03 18:34:50;;;;;;;23.33;6.47;;;;;;;;;;5058055;27;87844;-67
2023/01/03 18:37:16;;;;;;;24.75;7.70;;;;;;;;;;5060155;27;86722;-68
2023/01/03 18:39:42;;;;;;;26.90;7.95;;;;;;;;;;5056021;27;87616;-68
2023/01/03 18:44:56;;;;;;;12.77;4.60;;;;;;;;;;5059980;27;87389;-68
2023/01/03 18:47:23;;;;;;;18.17;4.03;;;;;;;;;;5051002;27;86988;-67
2023/01/03 18:49:49;;;;;;;15.57;4.68;;;;;;;;;;5049911;27;87653;-68
2023/01/03 18:52:23;;;;;;;15.57;4.22;;;;;;;;;;5038881;28;86813;-68
2023/01/03 18:54:49;;;;;;;21.70;4.95;;;;;;;;;;5040090;27;88086;-67
2023/01/03 18:57:16;;;;;;;14.95;4.28;;;;;;;;;;5059023;27;86626;-68
2023/01/03 18:59:42;;;;;;;21.00;4.03;;;;;;;;;;5058773;27;87355;-68
2023/01/03 19:02:12;;;;;;;8.75;3.45;;;;;;;;;;5054056;27;89266;-67
2023/01/03 19:04:39;;;;;;;13.15;3.90;;;;;;;;;;5031467;27;88487;-68
2023/01/03 19:07:08;;;;;;;13.90;3.88;;;;;;;;;;5060316;27;87439;-67
2023/01/03 19:09:38;;;;;;;14.73;4.27;;;;;;;;;;5056110;27;87238;-67
2023/01/03 19:12:06;;;;;;;14.93;4.55;;;;;;;;;;5056517;27;87478;-67
2023/01/03 19:14:32;;;;;;;12.45;4.18;;;;;;;;;;5048282;27;88030;-67
2023/01/03 19:16:58;;;;;;;14.25;4.30;;;;;;;;;;5038551;27;87417;-68
2023/01/03 19:19:25;;;;;;;11.10;3.78;;;;;;;;;;5038998;28;88930;-68
2023/01/03 19:21:51;;;;;;;19.25;4.13;;;;;;;;;;5038300;28;87906;-67
2023/01/03 19:24:29;;;;;;;13.00;4.60;;;;;;;;;;5054772;27;87428;-67
2023/01/03 19:27:05;;;;;;;18.50;3.72;;;;;;;;;;5045099;27;87652;-68
2023/01/03 19:29:38;;;;;;;11.63;3.83;;;;;;;;;;5058773;27;88025;-67
2023/01/03 19:32:21;;;;;;;17.70;3.67;;;;;;;;;;5057648;27;87509;-67
2023/01/03 19:34:47;;;;;;;16.77;4.47;;;;;;;;;;5058682;27;87885;-68
2023/01/03 19:37:14;;;;;;;12.25;3.80;;;;;;;;;;5036816;27;87312;-67
2023/01/03 19:39:40;;;;;;;17.33;5.95;;;;;;;;;;5041948;27;88037;-67
2023/01/03 19:44:57;;;;;;;18.48;7.05;;;;;;;;;;5057497;27;87053;-67
2023/01/03 19:47:23;;;;;;;16.80;3.67;;;;;;;;;;5040381;27;87521;-67
2023/01/03 19:49:49;;;;;;;9.52;3.30;;;;;;;;;;5045260;27;89105;-67
2023/01/03 19:52:16;;;;;;;15.15;4.43;;;;;;;;;;5023061;28;87484;-68
2023/01/03 19:54:43;;;;;;;11.68;3.97;;;;;;;;;;5038288;28;87609;-67
2023/01/03 19:57:18;;;;;;;10.70;3.75;;;;;;;;;;5038021;28;87281;-67
2023/01/03 19:59:47;;;;;;;19.65;5.80;;;;;;;;;;5047168;27;89375;-67
2023/01/03 20:02:31;;;;;;;14.57;5.10;;;;;;;;;;5058000;27;89281;-67
2023/01/03 20:04:58;;;;;;;11.35;3.65;;;;;;;;;;5055153;27;89673;-67
2023/01/03 20:07:25;;;;;;;21.08;6.57;;;;;;;;;;5056211;27;88964;-67
2023/01/03 20:09:51;;;;;;;13.27;4.80;;;;;;;;;;5055489;27;88765;-68
2023/01/03 20:12:20;;;;;;;19.17;4.90;;;;;;;;;;5025950;27;91094;-68
2023/01/03 20:14:48;;;;;;;24.55;4.45;;;;;;;;;;5050200;27;88058;-68
2023/01/03 20:17:21;;;;;;;23.20;6.30;;;;;;;;;;5043650;27;88843;-68
2023/01/03 20:19:48;;;;;;;16.90;6.07;;;;;;;;;;5055045;27;88993;-68
2023/01/03 20:22:15;;;;;;;16.17;4.32;;;;;;;;;;5056380;27;88052;-68
2023/01/03 20:25:01;;;;;;;16.77;4.95;;;;;;;;;;5047310;27;88614;-68
2023/01/03 20:27:27;;;;;;;19.23;4.85;;;;;;;;;;5037010;28;88417;-68
2023/01/03 20:29:54;;;;;;;8.45;3.92;;;;;;;;;;5022212;27;88084;-68
2023/01/03 20:32:20;;;;;;;12.93;4.07;;;;;;;;;;5055407;27;89088;-68
2023/01/03 20:34:46;;;;;;;14.68;4.28;;;;;;;;;;5058099;27;89973;-68
2023/01/03 20:37:17;;;;;;;17.58;4.63;;;;;;;;;;5055972;27;89794;-67
2023/01/03 20:39:43;;;;;;;15.82;4.45;;;;;;;;;;5032803;27;89319;-67
2023/01/03 20:42:27;;;;;;;12.40;3.03;;;;;;;;;;5025499;28;88577;-67
2023/01/03 20:44:55;;;;;;;11.23;4.25;;;;;;;;;;5022279;28;90175;-66
2023/01/03 20:47:23;;;;;;;14.80;3.60;;;;;;;;;;5059856;27;88930;-67
2023/01/03 20:49:49;;;;;;;13.45;4.00;;;;;;;;;;5048284;27;89242;-67
2023/01/03 20:52:16;;;;;;;14.77;4.13;;;;;;;;;;5069570;27;89023;-67
2023/01/03 20:54:42;;;;;;;18.70;4.70;;;;;;;;;;5078410;27;89488;-66
2023/01/03 20:57:12;;;;;;;14.90;4.05;;;;;;;;;;5082181;27;88048;-66
2023/01/03 20:59:39;;;;;;;9.98;3.53;;;;;;;;;;5079102;27;89695;-66
2023/01/03 21:02:05;;;;;;;15.25;3.80;;;;;;;;;;5059989;27;88948;-66
2023/01/03 21:04:31;;;;;;;12.90;3.13;;;;;;;;;;5071231;27;91339;-66
2023/01/03 21:06:58;;;;;;;15.90;4.47;;;;;;;;;;5080257;27;88108;-67
2023/01/03 21:09:24;;;;;;;14.73;4.63;;;;;;;;;;5080353;27;88058;-67
2023/01/03 21:11:50;;;;;;;11.15;3.17;;;;;;;;;;5076986;27;89452;-67
2023/01/03 21:14:17;;;;;;;11.98;3.88;;;;;;;;;;5080240;27;88994;-67
2023/01/03 21:16:45;;;;;;;14.60;3.13;;;;;;;;;;5069471;27;90705;-66
2023/01/03 21:19:13;;;;;;;13.57;3.22;;;;;;;;;;5079944;27;89092;-66
2023/01/03 21:21:40;;;;;;;17.33;4.65;;;;;;;;;;5072169;27;88358;-67
2023/01/03 21:24:06;;;;;;;12.57;3.17;;;;;;;;;;5076575;27;89093;-67
2023/01/03 21:26:32;;;;;;;16.38;2.90;;;;;;;;;;5080389;27;89358;-66
2023/01/03 21:28:59;;;;;;;15.18;3.03;;;;;;;;;;5079241;27;88925;-66
2023/01/03 21:31:25;;;;;;;14.48;3.50;;;;;;;;;;5073594;27;89848;-66
2023/01/03 21:33:52;;;;;;;12.20;3.83;;;;;;;;;;5077250;27;90251;-66
2023/01/03 21:36:28;;;;;;;12.93;3.22;;;;;;;;;;5059549;27;88035;-67
2023/01/03 21:38:55;;;;;;;10.75;3.42;;;;;;;;;;5059418;27;89329;-67
2023/01/03 21:41:29;;;;;;;14.23;3.15;;;;;;;;;;5065933;27;89657;-67
2023/01/03 21:43:57;;;;;;;9.02;2.38;;;;;;;;;;5077779;27;88365;-67
2023/01/03 21:46:23;;;;;;;10.75;3.13;;;;;;;;;;5067868;27;88900;-66
2023/01/03 21:48:50;;;;;;;9.32;3.38;;;;;;;;;;5073644;27;88834;-66
2023/01/03 21:51:17;;;;;;;21.70;3.88;;;;;;;;;;5074554;27;89481;-67
2023/01/03 21:54:00;;;;;;;11.57;3.63;;;;;;;;;;5059470;27;90399;-67
2023/01/03 21:56:26;;;;;;;14.00;3.45;;;;;;;;;;5059865;27;87898;-67
2023/01/03 21:58:53;;;;;;;25.83;7.28;;;;;;;;;;5059451;27;89059;-66
2023/01/03 22:01:21;;;;;;;20.00;6.80;;;;;;;;;;5062528;27;90068;-66
2023/01/03 22:06:33;;;;;;;16.45;4.25;;;;;;;;;;5079010;27;88378;-66
2023/01/03 22:09:00;;;;;;;10.30;3.20;;;;;;;;;;5079212;27;88027;-66
2023/01/03 22:11:27;;;;;;;12.40;3.00;;;;;;;;;;5078238;27;89138;-66
2023/01/03 22:13:54;;;;;;;15.35;3.28;;;;;;;;;;5078934;27;89591;-66
2023/01/03 22:16:21;;;;;;;15.00;3.33;;;;;;;;;;5067495;27;88134;-67
2023/01/03 22:18:47;;;;;;;11.07;3.53;;;;;;;;;;5058816;27;88985;-66
2023/01/03 22:21:14;;;;;;;7.15;2.45;;;;;;;;;;5061720;27;88246;-66
2023/01/03 22:23:40;;;;;;;10.73;3.25;;;;;;;;;;5079905;27;88014;-67
2023/01/03 22:26:10;;;;;;;13.88;2.33;;;;;;;;;;5075994;27;88110;-67
2023/01/03 22:28:40;;;;;;;13.50;3.05;;;;;;;;;;5065112;27;88945;-66
2023/01/03 22:31:12;;;;;;;8.43;2.10;;;;;;;;;;5072832;27;89126;-66
2023/01/03 22:33:38;;;;;;;12.98;2.88;;;;;;;;;;5078935;27;89153;-66
2023/01/03 22:36:05;;;;;;;14.38;2.70;;;;;;;;;;5078553;27;88447;-66
2023/01/03 22:38:32;;;;;;;11.93;3.13;;;;;;;;;;5076387;27;88656;-67
2023/01/03 22:40:58;;;;;;;14.13;2.65;;;;;;;;;;5077547;27;88786;-66
2023/01/03 22:43:25;;;;;;;11.90;2.60;;;;;;;;;;5078899;27;87969;-67
2023/01/03 22:45:51;;;;;;;11.82;2.45;;;;;;;;;;5074130;27;89204;-66
2023/01/03 22:48:18;;;;;;;9.70;2.83;;;;;;;;;;5061978;27;88034;-66
2023/01/03 22:50:44;;;;;;;13.68;2.42;;;;;;;;;;5046451;27;89487;-66
2023/01/03 22:53:10;;;;;;;12.02;2.70;;;;;;;;;;5054739;27;89078;-66
2023/01/03 22:55:39;;;;;;;12.73;2.85;;;;;;;;;;5059245;27;87874;-67
2023/01/03 22:58:06;;;;;;;22.35;2.92;;;;;;;;;;5057766;27;90988;-67
2023/01/03 23:00:32;;;;;;;18.90;2.50;;;;;;;;;;5039419;27;89493;-67
2023/01/03 23:03:00;;;;;;;10.05;2.90;;;;;;;;;;5020703;27;88843;-66
2023/01/03 23:05:26;;;;;;;6.40;2.28;;;;;;;;;;5039987;27;89535;-67
2023/01/03 23:07:52;;;;;;;9.43;2.38;;;;;;;;;;5060149;27;88987;-67
